Time,TemperatureF,DewpointF,PressureIn,WindDirection,WindDirectionDegrees,WindSpeedMPH,WindSpeedGustMPH,Humidity,HourlyPrecipIn,Conditions,Clouds,dailyrainin,SoftwareType,DateUTC
2013-02-03 00:05:00,58.6,33.7,30.15,NNE,25,1.0,1.0,39,0.00,CLR,,0.00,WeatherDisplay:10.37,2013-02-03 08:05:00,
2013-02-03 00:10:00,58.3,35.9,30.15,NNE,22,3.0,3.0,43,0.00,CLR,,0.00,WeatherDisplay:10.37,2013-02-03 08:10:00,
2013-02-03 00:19:00,57.4,37.4,30.15,North,360,1.0,2.0,47,0.00,CLR,,0.00,WeatherDisplay:10.37,2013-02-03 08:19:00,
2013-02-03 00:25:00,56.9,37.4,30.15,NW,326,6.0,7.0,48,0.00,CLR,,0.00,WeatherDisplay:10.37,2013-02-03 08:25:00,
2013-02-03 00:35:00,56.5,38.6,30.14,WNW,287,5.0,6.0,51,0.00,CLR,,0.00,WeatherDisplay:10.37,2013-02-03 08:35:00,
2013-02-03 00:40:00,56.1,37.7,30.14,NW,304,6.0,6.0,50,0.00,CLR,,0.00,WeatherDisplay:10.37,2013-02-03 08:40:00,
2013-02-03 00:50:00,56.2,37.3,30.14,NW,304,7.0,8.0,49,0.00,CLR,,0.00,WeatherDisplay:10.37,2013-02-03 08:50:00,
2013-02-03 00:55:00,56.1,37.7,30.14,NW,312,5.0,6.0,50,0.00,CLR,,0.00,WeatherDisplay:10.37,2013-02-03 08:55:00,
2013-02-03 01:05:00,55.9,37.6,30.14,NNW,333,0.0,3.0,50,0.00,-RA,,0.00,WeatherDisplay:10.37,2013-02-03 09:05:00,
2013-02-03 01:10:00,55.8,37.9,30.14,NNW,331,1.0,1.0,51,0.00,-RA,,0.00,WeatherDisplay:10.37,2013-02-03 09:10:00,
2013-02-03 01:20:00,55.2,38.9,30.14,NW,307,5.0,5.0,54,0.00,-RA,,0.00,WeatherDisplay:10.37,2013-02-03 09:20:00,
2013-02-03 01:25:00,55.0,38.7,30.14,NW,309,3.0,6.0,54,0.00,-RA,,0.00,WeatherDisplay:10.37,2013-02-03 09:25:00,
2013-02-03 01:35:00,55.4,37.6,30.14,NW,323,7.0,9.0,51,0.00,-RA,,0.00,WeatherDisplay:10.37,2013-02-03 09:35:00,
2013-02-03 01:40:00,55.4,37.1,30.13,NW,326,7.0,8.0,50,0.00,-RA,,0.00,WeatherDisplay:10.37,2013-02-03 09:40:00,
2013-02-03 01:50:00,55.4,38.1,30.13,NNW,333,7.0,8.0,52,0.00,-RA,,0.00,WeatherDisplay:10.37,2013-02-03 09:50:00,
2013-02-03 01:55:00,55.2,38.4,30.13,NNW,330,6.0,8.0,53,0.00,-RA,,0.00,WeatherDisplay:10.37,2013-02-03 09:55:00,
2013-02-03 02:05:00,54.5,39.6,30.13,NNW,335,5.0,6.0,57,0.00,-RA,,0.00,WeatherDisplay:10.37,2013-02-03 10:05:00,
2013-02-03 02:10:00,54.7,40.2,30.12,North,350,6.0,7.0,58,0.01,-RA,,0.01,WeatherDisplay:10.37,2013-02-03 10:10:00,
2013-02-03 02:20:00,55.0,40.5,30.12,NNW,346,6.0,10.0,58,0.00,-RA,,0.01,WeatherDisplay:10.37,2013-02-03 10:20:00,
2013-02-03 02:25:00,55.0,40.1,30.12,NNW,346,6.0,7.0,57,0.00,-DZ,,0.01,WeatherDisplay:10.37,2013-02-03 10:25:00,
2013-02-03 02:35:00,54.7,39.7,30.11,NNW,343,6.0,7.0,57,0.00,-DZ,,0.01,WeatherDisplay:10.37,2013-02-03 10:35:00,
2013-02-03 02:40:00,54.3,41.6,30.11,NNW,345,5.0,6.0,62,0.00,-DZ,,0.01,WeatherDisplay:10.37,2013-02-03 10:40:00,
2013-02-03 02:50:00,53.1,42.4,30.11,NW,320,5.0,6.0,67,0.00,-DZ,,0.01,WeatherDisplay:10.37,2013-02-03 10:50:00,
2013-02-03 02:55:00,52.9,42.2,30.12,NW,316,7.0,7.0,67,0.00,-DZ,,0.01,WeatherDisplay:10.37,2013-02-03 10:55:00,
2013-02-03 03:05:00,52.9,42.2,30.11,NW,317,5.0,7.0,67,0.00,OVC,,0.01,WeatherDisplay:10.37,2013-02-03 11:05:00,
2013-02-03 03:10:00,52.9,42.2,30.11,NW,313,2.0,5.0,67,0.00,OVC,,0.01,WeatherDisplay:10.37,2013-02-03 11:10:00,
2013-02-03 03:20:00,53.1,41.2,30.11,NW,313,2.0,5.0,64,0.00,OVC,,0.01,WeatherDisplay:10.37,2013-02-03 11:20:00,
2013-02-03 03:25:00,53.6,41.7,30.11,NW,314,3.0,5.0,64,0.00,OVC,,0.01,WeatherDisplay:10.37,2013-02-03 11:25:00,
2013-02-03 03:35:00,53.6,41.7,30.11,NW,307,2.0,3.0,64,0.00,OVC,,0.01,WeatherDisplay:10.37,2013-02-03 11:35:00,
2013-02-03 03:40:00,53.2,42.2,30.12,NW,313,3.0,7.0,66,0.00,OVC,,0.01,WeatherDisplay:10.37,2013-02-03 11:40:00,
2013-02-03 03:50:00,53.2,41.4,30.12,NNW,342,3.0,6.0,64,0.00,OVC,,0.01,WeatherDisplay:10.37,2013-02-03 11:50:00,
2013-02-03 03:55:00,53.4,41.5,30.12,NNW,340,5.0,6.0,64,0.00,OVC,,0.01,WeatherDisplay:10.37,2013-02-03 11:55:00,
2013-02-03 04:05:00,54.0,40.8,30.12,NNW,332,2.0,8.0,61,0.00,OVC,,0.01,WeatherDisplay:10.37,2013-02-03 12:05:00,
2013-02-03 04:10:00,54.1,39.6,30.12,NW,322,2.0,3.0,58,0.00,OVC,,0.01,WeatherDisplay:10.37,2013-02-03 12:10:00,
2013-02-03 04:20:00,54.3,40.3,30.12,North,355,9.0,9.0,59,0.00,OVC,,0.01,WeatherDisplay:10.37,2013-02-03 12:20:00,
2013-02-03 04:25:00,54.3,40.7,30.11,NNE,16,7.0,9.0,60,0.00,OVC,,0.01,WeatherDisplay:10.37,2013-02-03 12:25:00,
2013-02-03 04:35:00,54.1,40.6,30.11,NNE,16,6.0,8.0,60,0.00,OVC,,0.01,WeatherDisplay:10.37,2013-02-03 12:35:00,
2013-02-03 04:40:00,54.3,41.1,30.11,North,1,6.0,9.0,61,0.00,OVC,,0.01,WeatherDisplay:10.37,2013-02-03 12:40:00,
2013-02-03 04:50:00,53.6,42.5,30.11,NNE,28,5.0,9.0,66,0.00,OVC,,0.01,WeatherDisplay:10.37,2013-02-03 12:50:00,
2013-02-03 04:55:00,53.3,43.4,30.10,NE,41,5.0,6.0,69,0.00,OVC,,0.01,WeatherDisplay:10.37,2013-02-03 12:55:00,
2013-02-03 05:05:00,52.9,43.0,30.10,NNE,30,5.0,6.0,69,0.00,OVC,,0.01,WeatherDisplay:10.37,2013-02-03 13:05:00,
2013-02-03 05:10:00,53.1,43.2,30.09,NNE,20,3.0,6.0,69,0.00,OVC,,0.01,WeatherDisplay:10.37,2013-02-03 13:10:00,
2013-02-03 05:20:00,53.2,43.3,30.10,NNW,347,0.0,1.0,69,0.00,OVC,,0.01,WeatherDisplay:10.37,2013-02-03 13:20:00,
2013-02-03 05:25:00,52.9,44.5,30.10,South,186,2.0,5.0,73,0.00,OVC,,0.01,WeatherDisplay:10.37,2013-02-03 13:25:00,
2013-02-03 05:35:00,52.0,43.2,30.10,South,183,1.0,2.0,72,0.00,OVC,,0.01,WeatherDisplay:10.37,2013-02-03 13:35:00,
2013-02-03 05:40:00,51.9,43.1,30.10,SSW,206,1.0,1.0,72,0.00,OVC,,0.01,WeatherDisplay:10.37,2013-02-03 13:40:00,
2013-02-03 05:50:00,51.6,42.9,30.09,NNW,341,2.0,2.0,72,0.00,OVC,,0.01,WeatherDisplay:10.37,2013-02-03 13:50:00,
2013-02-03 05:55:00,51.4,41.6,30.09,NNW,339,1.0,2.0,69,0.00,OVC,,0.01,WeatherDisplay:10.37,2013-02-03 13:55:00,
2013-02-03 06:05:00,51.3,41.8,30.09,NNW,332,1.0,1.0,70,0.00,SCT,,0.01,WeatherDisplay:10.37,2013-02-03 14:05:00,
2013-02-03 06:10:00,50.9,41.5,30.09,NNW,342,1.0,2.0,70,0.00,SCT,,0.01,WeatherDisplay:10.37,2013-02-03 14:10:00,
2013-02-03 06:20:00,50.4,41.7,30.09,NNW,328,2.0,2.0,72,0.00,SCT,,0.01,WeatherDisplay:10.37,2013-02-03 14:20:00,
2013-02-03 06:25:00,50.0,41.3,30.09,NNW,332,1.0,2.0,72,0.00,SCT,,0.01,WeatherDisplay:10.37,2013-02-03 14:25:00,
2013-02-03 06:35:00,49.3,41.3,30.09,NNW,340,2.0,3.0,74,0.00,SCT,,0.01,WeatherDisplay:10.37,2013-02-03 14:35:00,
2013-02-03 06:40:00,49.6,41.3,30.09,NNW,329,3.0,3.0,73,0.00,SCT,,0.01,WeatherDisplay:10.37,2013-02-03 14:40:00,
2013-02-03 06:50:00,49.5,41.5,30.10,NW,306,5.0,6.0,74,0.00,SCT,,0.01,WeatherDisplay:10.37,2013-02-03 14:50:00,
2013-02-03 06:55:00,49.5,41.2,30.10,NW,308,3.0,6.0,73,0.00,SCT,,0.01,WeatherDisplay:10.37,2013-02-03 14:55:00,
2013-02-03 07:05:00,49.5,41.2,30.10,NW,307,3.0,3.0,73,0.00,SCT,,0.01,WeatherDisplay:10.37,2013-02-03 15:05:00,
2013-02-03 07:10:00,49.6,41.3,30.10,NW,317,2.0,3.0,73,0.00,SCT,,0.01,WeatherDisplay:10.37,2013-02-03 15:10:00,
2013-02-03 07:20:00,50.5,41.8,30.10,NW,315,1.0,3.0,72,0.00,SCT,,0.01,WeatherDisplay:10.37,2013-02-03 15:20:00,
2013-02-03 07:25:00,51.2,41.8,30.10,NW,318,0.0,1.0,70,0.00,SCT,,0.01,WeatherDisplay:10.37,2013-02-03 15:25:00,
2013-02-03 07:35:00,53.5,43.5,30.10,SSE,168,0.0,1.0,69,0.00,SCT,,0.01,WeatherDisplay:10.37,2013-02-03 15:35:00,
2013-02-03 07:40:00,54.1,44.2,30.10,ENE,58,3.0,4.0,69,0.00,SCT,,0.01,WeatherDisplay:10.37,2013-02-03 15:40:00,
2013-02-03 07:50:00,54.3,44.0,30.10,ENE,67,2.0,3.0,68,0.00,SCT,,0.01,WeatherDisplay:10.37,2013-02-03 15:50:00,
2013-02-03 07:55:00,54.2,44.3,30.10,East,84,3.0,3.0,69,0.00,SCT,,0.01,WeatherDisplay:10.37,2013-02-03 15:55:00,
2013-02-03 08:05:00,54.7,43.1,30.10,East,87,2.0,3.0,65,0.00,CLR,,0.01,WeatherDisplay:10.37,2013-02-03 16:05:00,
2013-02-03 08:10:00,55.0,43.1,30.10,East,100,1.0,3.0,64,0.00,CLR,,0.01,WeatherDisplay:10.37,2013-02-03 16:10:00,
2013-02-03 08:20:00,55.7,43.3,30.10,SE,132,0.0,3.0,63,0.00,CLR,,0.01,WeatherDisplay:10.37,2013-02-03 16:20:00,
2013-02-03 08:25:00,55.9,43.5,30.10,South,169,5.0,5.0,63,0.00,CLR,,0.01,WeatherDisplay:10.37,2013-02-03 16:25:00,
2013-02-03 08:35:00,55.9,42.7,30.10,South,174,2.0,4.0,61,0.00,CLR,,0.01,WeatherDisplay:10.37,2013-02-03 16:35:00,
2013-02-03 08:40:00,55.9,43.1,30.10,SSE,148,2.0,3.0,62,0.00,CLR,,0.01,WeatherDisplay:10.37,2013-02-03 16:40:00,
2013-02-03 08:50:00,56.1,42.8,30.10,SSE,156,2.0,5.0,61,0.00,CLR,,0.01,WeatherDisplay:10.37,2013-02-03 16:50:00,
2013-02-03 08:55:00,55.9,42.7,30.10,SE,143,3.0,6.0,61,0.00,CLR,,0.01,WeatherDisplay:10.37,2013-02-03 16:55:00,
2013-02-03 09:05:00,56.3,42.6,30.10,SE,140,5.0,6.0,60,0.00,CLR,,0.01,WeatherDisplay:10.37,2013-02-03 17:05:00,
2013-02-03 09:10:00,56.5,43.2,30.10,ESE,123,3.0,6.0,61,0.00,CLR,,0.01,WeatherDisplay:10.37,2013-02-03 17:10:00,
2013-02-03 09:20:00,56.5,43.6,30.10,SSE,154,5.0,6.0,62,0.00,CLR,,0.01,WeatherDisplay:10.37,2013-02-03 17:20:00,
2013-02-03 09:25:00,56.2,43.8,30.10,SSE,147,2.0,7.0,63,0.00,CLR,,0.01,WeatherDisplay:10.37,2013-02-03 17:25:00,
2013-02-03 09:35:00,56.8,43.9,30.10,SSE,166,2.0,6.0,62,0.00,CLR,,0.01,WeatherDisplay:10.37,2013-02-03 17:35:00,
2013-02-03 09:40:00,57.0,43.3,30.10,South,172,6.0,7.0,60,0.00,CLR,,0.01,WeatherDisplay:10.37,2013-02-03 17:40:00,
2013-02-03 09:50:00,57.7,44.3,30.10,SSW,208,1.0,7.0,61,0.00,CLR,,0.01,WeatherDisplay:10.37,2013-02-03 17:50:00,
2013-02-03 09:55:00,58.1,44.3,30.10,SSW,208,6.0,8.0,60,0.00,CLR,,0.01,WeatherDisplay:10.37,2013-02-03 17:55:00,
2013-02-03 10:05:00,58.3,44.0,30.10,South,191,6.0,7.0,59,0.00,CLR,,0.01,WeatherDisplay:10.37,2013-02-03 18:05:00,
2013-02-03 10:10:00,58.3,44.4,30.10,SSE,154,6.0,7.0,60,0.00,CLR,,0.01,WeatherDisplay:10.37,2013-02-03 18:10:00,
2013-02-03 10:20:00,58.5,45.1,30.10,SE,126,2.0,6.0,61,0.00,CLR,,0.01,WeatherDisplay:10.37,2013-02-03 18:20:00,
2013-02-03 10:25:00,59.2,43.9,30.11,SE,131,6.0,8.0,57,0.00,CLR,,0.01,WeatherDisplay:10.37,2013-02-03 18:25:00,
2013-02-03 10:35:00,59.1,44.8,30.10,SSE,161,1.0,6.0,59,0.00,CLR,,0.01,WeatherDisplay:10.37,2013-02-03 18:35:00,
2013-02-03 10:40:00,59.7,43.9,30.10,SSE,154,1.0,2.0,56,0.00,CLR,,0.01,WeatherDisplay:10.37,2013-02-03 18:40:00,
2013-02-03 10:50:00,59.0,43.8,30.10,South,169,8.0,8.0,57,0.00,CLR,,0.01,WeatherDisplay:10.37,2013-02-03 18:50:00,
2013-02-03 10:55:00,59.0,43.3,30.10,South,174,7.0,8.0,56,0.00,CLR,,0.01,WeatherDisplay:10.37,2013-02-03 18:55:00,
2013-02-03 11:05:00,60.0,44.3,30.10,SE,139,6.0,6.0,56,0.00,CLR,,0.01,WeatherDisplay:10.37,2013-02-03 19:05:00,
2013-02-03 11:10:00,60.8,44.5,30.09,South,171,7.0,7.0,55,0.00,CLR,,0.01,WeatherDisplay:10.37,2013-02-03 19:10:00,
2013-02-03 11:20:00,60.4,44.6,30.09,SSE,167,6.0,8.0,56,0.00,CLR,,0.01,WeatherDisplay:10.37,2013-02-03 19:20:00,
2013-02-03 11:25:00,60.9,44.6,30.08,SSW,203,1.0,6.0,55,0.00,CLR,,0.01,WeatherDisplay:10.37,2013-02-03 19:25:00,
2013-02-03 11:35:00,60.9,44.7,30.08,SSW,201,9.0,9.0,55,0.00,CLR,,0.01,WeatherDisplay:10.37,2013-02-03 19:35:00,
2013-02-03 11:50:00,59.8,45.4,30.07,South,181,6.0,7.0,59,0.00,CLR,,0.01,WeatherDisplay:10.37,2013-02-03 19:50:00,
2013-02-03 11:55:00,59.6,44.4,30.07,SSE,166,3.0,8.0,57,0.00,CLR,,0.01,WeatherDisplay:10.37,2013-02-03 19:55:00,
2013-02-03 12:05:00,59.7,44.5,30.06,South,172,3.0,6.0,57,0.00,CLR,,0.01,WeatherDisplay:10.37,2013-02-03 20:05:00,
2013-02-03 12:10:00,59.7,44.9,30.06,South,173,2.0,3.0,58,0.00,CLR,,0.01,WeatherDisplay:10.37,2013-02-03 20:10:00,
2013-02-03 12:20:00,60.8,45.0,30.06,South,182,7.0,8.0,56,0.00,CLR,,0.01,WeatherDisplay:10.37,2013-02-03 20:20:00,
2013-02-03 12:25:00,61.2,44.4,30.06,SSW,202,5.0,8.0,54,0.00,CLR,,0.01,WeatherDisplay:10.37,2013-02-03 20:25:00,
2013-02-03 12:35:00,60.4,45.1,30.05,ESE,119,5.0,9.0,57,0.00,CLR,,0.01,WeatherDisplay:10.37,2013-02-03 20:35:00,
2013-02-03 12:40:00,60.6,45.3,30.05,SSE,152,6.0,9.0,57,0.00,CLR,,0.01,WeatherDisplay:10.37,2013-02-03 20:40:00,
2013-02-03 12:50:00,61.5,44.2,30.04,South,172,3.0,10.0,53,0.00,CLR,,0.01,WeatherDisplay:10.37,2013-02-03 20:50:00,
2013-02-03 12:55:00,61.0,43.8,30.04,SSW,204,7.0,7.0,53,0.00,CLR,,0.01,WeatherDisplay:10.37,2013-02-03 20:55:00,
2013-02-03 13:05:00,62.7,44.9,30.04,SSW,193,7.0,9.0,52,0.00,CLR,,0.01,WeatherDisplay:10.37,2013-02-03 21:05:00,
2013-02-03 13:20:00,62.0,43.1,30.03,SSE,159,8.0,13.0,50,0.00,CLR,,0.01,WeatherDisplay:10.37,2013-02-03 21:20:00,
2013-02-03 13:25:00,61.9,44.1,30.03,SSE,150,6.0,8.0,52,0.00,CLR,,0.01,WeatherDisplay:10.37,2013-02-03 21:25:00,
2013-02-03 13:35:00,61.7,43.4,30.03,SSE,164,3.0,8.0,51,0.00,CLR,,0.01,WeatherDisplay:10.37,2013-02-03 21:35:00,
2013-02-03 13:40:00,61.9,43.5,30.03,SE,140,8.0,8.0,51,0.00,CLR,,0.01,WeatherDisplay:10.37,2013-02-03 21:40:00,
2013-02-03 13:50:00,62.3,43.9,30.03,South,174,8.0,8.0,51,0.00,CLR,,0.01,WeatherDisplay:10.37,2013-02-03 21:50:00,
2013-02-03 13:55:00,62.1,43.7,30.03,SE,146,7.0,9.0,51,0.00,CLR,,0.01,WeatherDisplay:10.37,2013-02-03 21:55:00,
2013-02-03 14:05:00,61.9,43.5,30.02,SE,132,6.0,6.0,51,0.00,CLR,,0.01,WeatherDisplay:10.37,2013-02-03 22:05:00,
2013-02-03 14:10:00,62.0,43.7,30.02,ESE,123,7.0,9.0,51,0.00,CLR,,0.01,WeatherDisplay:10.37,2013-02-03 22:10:00,
2013-02-03 14:20:00,62.6,43.1,30.02,SSE,150,6.0,8.0,49,0.00,BKN,,0.01,WeatherDisplay:10.37,2013-02-03 22:20:00,
2013-02-03 14:25:00,62.8,42.2,30.02,SSE,147,8.0,9.0,47,0.00,BKN,,0.01,WeatherDisplay:10.37,2013-02-03 22:25:00,
2013-02-03 14:35:00,63.6,43.0,30.02,SSW,212,2.0,6.0,47,0.00,BKN,,0.01,WeatherDisplay:10.37,2013-02-03 22:35:00,
2013-02-03 14:40:00,63.9,42.1,30.02,SW,217,3.0,12.0,45,0.00,BKN,,0.01,WeatherDisplay:10.37,2013-02-03 22:40:00,
2013-02-03 14:50:00,64.3,42.0,30.02,SSW,205,5.0,9.0,44,0.00,BKN,,0.01,WeatherDisplay:10.37,2013-02-03 22:50:00,
2013-02-03 14:55:00,64.2,41.8,30.02,SSW,201,8.0,10.0,44,0.00,BKN,,0.01,WeatherDisplay:10.37,2013-02-03 22:55:00,
2013-02-03 15:05:00,63.8,42.1,30.02,South,185,7.0,8.0,45,0.00,BKN,,0.01,WeatherDisplay:10.37,2013-02-03 23:05:00,
2013-02-03 15:10:00,64.0,41.6,30.02,SSW,196,3.0,10.0,44,0.00,BKN,,0.01,WeatherDisplay:10.37,2013-02-03 23:10:00,
2013-02-03 15:20:00,64.2,41.2,30.03,WSW,243,5.0,7.0,43,0.00,BKN,,0.01,WeatherDisplay:10.37,2013-02-03 23:20:00,
2013-02-03 15:25:00,64.2,41.2,30.02,SW,223,3.0,7.0,43,0.00,BKN,,0.01,WeatherDisplay:10.37,2013-02-03 23:25:00,
2013-02-03 15:35:00,63.8,41.5,30.02,SSE,167,3.0,7.0,44,0.00,BKN,,0.01,WeatherDisplay:10.37,2013-02-03 23:35:00,
2013-02-03 15:40:00,64.0,41.1,30.02,South,191,5.0,6.0,43,0.00,BKN,,0.01,WeatherDisplay:10.37,2013-02-03 23:40:00,
2013-02-03 15:50:00,63.6,39.4,30.02,West,265,5.0,6.0,41,0.00,BKN,,0.01,WeatherDisplay:10.37,2013-02-03 23:50:00,
2013-02-03 15:55:00,63.3,39.8,30.03,WSW,249,6.0,7.0,42,0.00,BKN,,0.01,WeatherDisplay:10.37,2013-02-03 23:55:00,
2013-02-03 16:05:00,62.8,39.3,30.03,West,261,2.0,8.0,42,0.00,BKN,,0.01,WeatherDisplay:10.37,2013-02-04 00:05:00,
2013-02-03 16:20:00,62.2,38.2,30.02,SW,232,2.0,7.0,41,0.00,BKN,,0.01,WeatherDisplay:10.37,2013-02-04 00:20:00,
2013-02-03 16:25:00,62.1,38.1,30.02,WNW,283,2.0,5.0,41,0.00,BKN,,0.01,WeatherDisplay:10.37,2013-02-04 00:25:00,
2013-02-03 16:35:00,61.8,37.9,30.02,WSW,246,5.0,7.0,41,0.00,BKN,,0.01,WeatherDisplay:10.37,2013-02-04 00:35:00,
2013-02-03 16:40:00,61.5,38.2,30.02,West,264,3.0,6.0,42,0.00,BKN,,0.01,WeatherDisplay:10.37,2013-02-04 00:40:00,
2013-02-03 16:50:00,61.0,38.4,30.02,West,273,2.0,2.0,43,0.00,BKN,,0.01,WeatherDisplay:10.37,2013-02-04 00:50:00,
2013-02-03 16:55:00,60.8,38.1,30.02,WNW,300,1.0,3.0,43,0.00,BKN,,0.01,WeatherDisplay:10.37,2013-02-04 00:55:00,
2013-02-03 17:05:00,60.3,38.2,30.02,WNW,296,0.0,3.0,44,0.00,CLR,,0.01,WeatherDisplay:10.37,2013-02-04 01:05:00,
2013-02-03 17:10:00,60.1,38.7,30.02,WNW,295,1.0,1.0,45,0.00,CLR,,0.01,WeatherDisplay:10.37,2013-02-04 01:10:00,
2013-02-03 17:20:00,59.0,38.8,30.02,NW,308,2.0,4.0,47,0.00,CLR,,0.01,WeatherDisplay:10.37,2013-02-04 01:20:00,
2013-02-03 17:25:00,58.3,38.2,30.02,NW,307,2.0,3.0,47,0.00,CLR,,0.01,WeatherDisplay:10.37,2013-02-04 01:25:00,
2013-02-03 17:35:00,57.6,38.0,30.02,NW,313,2.0,3.0,48,0.00,CLR,,0.01,WeatherDisplay:10.37,2013-02-04 01:35:00,
2013-02-03 17:40:00,57.4,38.4,30.03,NW,311,2.0,3.0,49,0.00,CLR,,0.01,WeatherDisplay:10.37,2013-02-04 01:40:00,
2013-02-03 17:50:00,56.5,38.1,30.03,NW,322,2.0,3.0,50,0.00,CLR,,0.01,WeatherDisplay:10.37,2013-02-04 01:50:00,
2013-02-03 17:55:00,56.1,37.7,30.03,NW,305,3.0,4.0,50,0.00,CLR,,0.01,WeatherDisplay:10.37,2013-02-04 01:55:00,
2013-02-03 18:05:00,56.3,38.4,30.03,NW,322,2.0,2.0,51,0.00,CLR,,0.01,WeatherDisplay:10.37,2013-02-04 02:05:00,
2013-02-03 18:10:00,55.9,37.6,30.04,NW,321,2.0,3.0,50,0.00,CLR,,0.01,WeatherDisplay:10.37,2013-02-04 02:10:00,
2013-02-03 18:20:00,55.3,37.9,30.04,WNW,301,3.0,3.0,52,0.00,CLR,,0.01,WeatherDisplay:10.37,2013-02-04 02:20:00,
2013-02-03 18:25:00,54.9,38.0,30.04,WNW,301,3.0,5.0,53,0.00,CLR,,0.01,WeatherDisplay:10.37,2013-02-04 02:25:00,
2013-02-03 18:35:00,54.5,37.7,30.04,NW,304,1.0,2.0,53,0.00,CLR,,0.01,WeatherDisplay:10.37,2013-02-04 02:35:00,
2013-02-03 18:40:00,54.7,38.4,30.04,NW,316,1.0,2.0,54,0.00,CLR,,0.01,WeatherDisplay:10.37,2013-02-04 02:40:00,
2013-02-03 18:50:00,54.3,39.4,30.05,NW,318,3.0,3.0,57,0.00,CLR,,0.01,WeatherDisplay:10.37,2013-02-04 02:50:00,
2013-02-03 18:55:00,54.3,39.8,30.05,NW,308,3.0,5.0,58,0.00,CLR,,0.01,WeatherDisplay:10.37,2013-02-04 02:55:00,
2013-02-03 19:05:00,53.6,40.5,30.05,NW,308,3.0,5.0,61,0.00,CLR,,0.01,WeatherDisplay:10.37,2013-02-04 03:05:00,
2013-02-03 19:10:00,53.9,41.2,30.04,NW,306,5.0,5.0,62,0.00,CLR,,0.01,WeatherDisplay:10.37,2013-02-04 03:10:00,
2013-02-03 19:20:00,53.6,41.7,30.05,NW,313,5.0,5.0,64,0.00,CLR,,0.01,WeatherDisplay:10.37,2013-02-04 03:20:00,
2013-02-03 19:25:00,53.4,41.9,30.05,NW,307,3.0,5.0,65,0.00,CLR,,0.01,WeatherDisplay:10.37,2013-02-04 03:25:00,
2013-02-03 19:35:00,52.9,41.8,30.05,NW,310,2.0,5.0,66,0.00,CLR,,0.01,WeatherDisplay:10.37,2013-02-04 03:35:00,
2013-02-03 19:40:00,52.9,42.2,30.05,NW,313,3.0,5.0,67,0.00,CLR,,0.01,WeatherDisplay:10.37,2013-02-04 03:40:00,
2013-02-03 19:50:00,52.9,42.2,30.06,NNW,328,2.0,3.0,67,0.00,CLR,,0.01,WeatherDisplay:10.37,2013-02-04 03:50:00,
2013-02-03 19:55:00,52.7,42.4,30.06,NNW,328,2.0,2.0,68,0.00,CLR,,0.01,WeatherDisplay:10.37,2013-02-04 03:55:00,
2013-02-03 20:05:00,52.7,42.4,30.06,North,352,2.0,3.0,68,0.00,CLR,,0.01,WeatherDisplay:10.37,2013-02-04 04:05:00,
2013-02-03 20:10:00,53.1,42.4,30.06,NNW,336,5.0,5.0,67,0.00,CLR,,0.01,WeatherDisplay:10.37,2013-02-04 04:10:00,
2013-02-03 20:20:00,52.9,42.2,30.06,NW,309,3.0,5.0,67,0.00,CLR,,0.01,WeatherDisplay:10.37,2013-02-04 04:20:00,
2013-02-03 20:25:00,52.5,42.6,30.06,NW,308,2.0,4.0,69,0.00,CLR,,0.01,WeatherDisplay:10.37,2013-02-04 04:25:00,
2013-02-03 20:35:00,52.5,42.6,30.06,NW,307,3.0,4.0,69,0.00,CLR,,0.01,WeatherDisplay:10.37,2013-02-04 04:35:00,
2013-02-03 20:40:00,52.7,42.8,30.06,NW,308,3.0,3.0,69,0.00,CLR,,0.01,WeatherDisplay:10.37,2013-02-04 04:40:00,
2013-02-03 20:50:00,52.2,42.7,30.06,NW,315,5.0,5.0,70,0.00,CLR,,0.01,WeatherDisplay:10.37,2013-02-04 04:50:00,
2013-02-03 20:55:00,51.8,42.3,30.06,NW,312,5.0,5.0,70,0.00,CLR,,0.01,WeatherDisplay:10.37,2013-02-04 04:55:00,
2013-02-03 21:05:00,51.8,42.4,30.06,NW,310,5.0,5.0,70,0.00,CLR,,0.01,WeatherDisplay:10.37,2013-02-04 05:05:00,
2013-02-03 21:10:00,51.6,42.5,30.06,NW,309,3.0,5.0,71,0.00,CLR,,0.01,WeatherDisplay:10.37,2013-02-04 05:10:00,
2013-02-03 21:20:00,51.7,42.9,30.06,NW,305,3.0,4.0,72,0.00,CLR,,0.01,WeatherDisplay:10.37,2013-02-04 05:20:00,
2013-02-03 21:25:00,51.8,43.1,30.06,WNW,302,2.0,5.0,72,0.00,CLR,,0.01,WeatherDisplay:10.37,2013-02-04 05:25:00,
2013-02-03 21:35:00,52.1,43.0,30.06,NW,315,5.0,5.0,71,0.00,CLR,,0.01,WeatherDisplay:10.37,2013-02-04 05:35:00,
2013-02-03 21:40:00,51.6,42.9,30.06,NW,316,5.0,5.0,72,0.00,CLR,,0.01,WeatherDisplay:10.37,2013-02-04 05:40:00,
2013-02-03 21:50:00,51.8,43.1,30.06,NW,309,3.0,5.0,72,0.00,CLR,,0.01,WeatherDisplay:10.37,2013-02-04 05:50:00,
2013-02-03 21:55:00,51.8,43.1,30.06,NW,310,3.0,5.0,72,0.00,CLR,,0.01,WeatherDisplay:10.37,2013-02-04 05:55:00,
2013-02-03 22:05:00,51.6,42.9,30.06,NW,307,2.0,5.0,72,0.00,CLR,,0.01,WeatherDisplay:10.37,2013-02-04 06:05:00,
2013-02-03 22:10:00,52.0,43.2,30.06,NW,307,3.0,3.0,72,0.00,CLR,,0.01,WeatherDisplay:10.37,2013-02-04 06:10:00,
2013-02-03 22:20:00,52.0,43.2,30.06,NW,309,3.0,5.0,72,0.00,CLR,,0.01,WeatherDisplay:10.37,2013-02-04 06:20:00,
2013-02-03 22:25:00,52.0,43.2,30.06,NW,317,2.0,5.0,72,0.00,CLR,,0.01,WeatherDisplay:10.37,2013-02-04 06:25:00,
2013-02-03 22:35:00,51.8,43.1,30.06,NW,320,3.0,3.0,72,0.00,CLR,,0.01,WeatherDisplay:10.37,2013-02-04 06:35:00,
2013-02-03 22:40:00,51.8,43.1,30.06,NW,316,2.0,3.0,72,0.00,CLR,,0.01,WeatherDisplay:10.37,2013-02-04 06:40:00,
2013-02-03 22:50:00,51.4,43.1,30.06,NNW,332,2.0,3.0,73,0.00,CLR,,0.01,WeatherDisplay:10.37,2013-02-04 06:50:00,
2013-02-03 22:55:00,51.6,42.9,30.06,NNW,330,2.0,3.0,72,0.00,CLR,,0.01,WeatherDisplay:10.37,2013-02-04 06:55:00,
2013-02-03 23:05:00,51.3,42.9,30.06,NNW,338,2.0,3.0,73,0.00,CLR,,0.01,WeatherDisplay:10.37,2013-02-04 07:05:00,
2013-02-03 23:10:00,51.6,42.9,30.06,NNW,334,2.0,3.0,72,0.00,CLR,,0.01,WeatherDisplay:10.37,2013-02-04 07:10:00,
2013-02-03 23:20:00,51.4,42.7,30.06,NNW,338,2.0,3.0,72,0.00,CLR,,0.01,WeatherDisplay:10.37,2013-02-04 07:20:00,
2013-02-03 23:25:00,51.3,42.5,30.06,NNW,341,2.0,3.0,72,0.00,CLR,,0.01,WeatherDisplay:10.37,2013-02-04 07:25:00,
2013-02-03 23:35:00,51.1,42.4,30.06,NNW,346,1.0,2.0,72,0.00,CLR,,0.01,WeatherDisplay:10.37,2013-02-04 07:35:00,
2013-02-03 23:40:00,51.1,42.4,30.06,North,350,2.0,2.0,72,0.00,CLR,,0.01,WeatherDisplay:10.37,2013-02-04 07:40:00,
2013-02-03 23:50:00,52.0,42.9,30.06,NNW,330,3.0,3.0,71,0.00,CLR,,0.01,WeatherDisplay:10.37,2013-02-04 07:50:00,
2013-02-03 23:55:00,52.2,43.0,30.06,NW,322,2.0,3.0,71,0.00,CLR,,0.01,WeatherDisplay:10.37,2013-02-04 07:55:00,